sensor_id;sensor_type;location;lat;lon;timestamp;temperature;humidity
75838;SHT30;64480;52.040;113.502;2024-02-15T00:02:19;-22.18;59.69
75838;SHT30;64480;52.040;113.502;2024-02-15T00:05:22;-22.15;59.56
75838;SHT30;64480;52.040;113.502;2024-02-15T00:08:30;-22.12;59.28
75838;SHT30;64480;52.040;113.502;2024-02-15T00:11:33;-22.00;59.07
75838;SHT30;64480;52.040;113.502;2024-02-15T00:14:36;-21.81;58.85
75838;SHT30;64480;52.040;113.502;2024-02-15T00:17:41;-21.60;58.37
75838;SHT30;64480;52.040;113.502;2024-02-15T00:20:47;-21.48;57.03
75838;SHT30;64480;52.040;113.502;2024-02-15T00:23:50;-21.43;56.04
75838;SHT30;64480;52.040;113.502;2024-02-15T00:26:54;-21.41;55.40
75838;SHT30;64480;52.040;113.502;2024-02-15T00:29:58;-21.18;55.44
75838;SHT30;64480;52.040;113.502;2024-02-15T00:33:02;-21.30;54.28
75838;SHT30;64480;52.040;113.502;2024-02-15T00:36:09;-21.35;54.29
75838;SHT30;64480;52.040;113.502;2024-02-15T00:39:14;-21.24;55.14
75838;SHT30;64480;52.040;113.502;2024-02-15T00:42:21;-21.18;55.33
75838;SHT30;64480;52.040;113.502;2024-02-15T00:45:28;-21.23;54.50
75838;SHT30;64480;52.040;113.502;2024-02-15T00:48:32;-21.10;54.72
75838;SHT30;64480;52.040;113.502;2024-02-15T00:51:36;-20.97;55.40
75838;SHT30;64480;52.040;113.502;2024-02-15T00:54:39;-20.68;56.17
75838;SHT30;64480;52.040;113.502;2024-02-15T00:57:44;-20.48;55.90
75838;SHT30;64480;52.040;113.502;2024-02-15T01:00:48;-20.27;55.30
75838;SHT30;64480;52.040;113.502;2024-02-15T01:03:52;-20.24;55.00
75838;SHT30;64480;52.040;113.502;2024-02-15T01:06:58;-20.19;54.84
75838;SHT30;64480;52.040;113.502;2024-02-15T01:10:01;-20.01;54.61
75838;SHT30;64480;52.040;113.502;2024-02-15T01:13:09;-19.82;54.75
75838;SHT30;64480;52.040;113.502;2024-02-15T01:16:12;-19.82;53.65
75838;SHT30;64480;52.040;113.502;2024-02-15T01:19:17;-19.79;53.70
75838;SHT30;64480;52.040;113.502;2024-02-15T01:22:21;-19.67;54.24
75838;SHT30;64480;52.040;113.502;2024-02-15T01:25:29;-19.51;53.84
75838;SHT30;64480;52.040;113.502;2024-02-15T01:28:33;-19.10;54.25
75838;SHT30;64480;52.040;113.502;2024-02-15T01:31:36;-18.80;53.84
75838;SHT30;64480;52.040;113.502;2024-02-15T01:34:42;-18.60;53.13
75838;SHT30;64480;52.040;113.502;2024-02-15T01:37:45;-18.54;52.67
75838;SHT30;64480;52.040;113.502;2024-02-15T01:40:49;-18.67;52.59
75838;SHT30;64480;52.040;113.502;2024-02-15T01:43:52;-18.42;53.03
75838;SHT30;64480;52.040;113.502;2024-02-15T01:46:55;-18.49;51.53
75838;SHT30;64480;52.040;113.502;2024-02-15T01:49:59;-18.46;51.83
75838;SHT30;64480;52.040;113.502;2024-02-15T01:53:10;-18.29;52.09
75838;SHT30;64480;52.040;113.502;2024-02-15T01:56:18;-18.26;51.57
75838;SHT30;64480;52.040;113.502;2024-02-15T01:59:23;-18.08;51.49
75838;SHT30;64480;52.040;113.502;2024-02-15T02:02:28;-18.14;51.11
75838;SHT30;64480;52.040;113.502;2024-02-15T02:05:34;-18.09;51.38
75838;SHT30;64480;52.040;113.502;2024-02-15T02:08:38;-17.90;51.84
75838;SHT30;64480;52.040;113.502;2024-02-15T02:11:44;-17.86;51.05
75838;SHT30;64480;52.040;113.502;2024-02-15T02:14:49;-17.74;51.52
75838;SHT30;64480;52.040;113.502;2024-02-15T02:17:54;-17.56;50.42
75838;SHT30;64480;52.040;113.502;2024-02-15T02:20:57;-17.45;50.53
75838;SHT30;64480;52.040;113.502;2024-02-15T02:24:03;-17.46;50.58
75838;SHT30;64480;52.040;113.502;2024-02-15T02:27:13;-17.63;50.28
75838;SHT30;64480;52.040;113.502;2024-02-15T02:30:18;-17.65;50.98
75838;SHT30;64480;52.040;113.502;2024-02-15T02:33:21;-17.76;50.91
75838;SHT30;64480;52.040;113.502;2024-02-15T02:36:29;-17.93;50.66
75838;SHT30;64480;52.040;113.502;2024-02-15T02:39:35;-17.94;50.86
75838;SHT30;64480;52.040;113.502;2024-02-15T02:42:52;-17.60;51.24
75838;SHT30;64480;52.040;113.502;2024-02-15T02:45:57;-17.20;50.68
75838;SHT30;64480;52.040;113.502;2024-02-15T02:49:01;-16.84;49.92
75838;SHT30;64480;52.040;113.502;2024-02-15T02:52:05;-16.63;48.64
75838;SHT30;64480;52.040;113.502;2024-02-15T02:55:11;-16.48;49.10
75838;SHT30;64480;52.040;113.502;2024-02-15T02:58:15;-16.20;49.25
75838;SHT30;64480;52.040;113.502;2024-02-15T03:01:22;-16.04;48.33
75838;SHT30;64480;52.040;113.502;2024-02-15T03:04:29;-15.71;48.50
75838;SHT30;64480;52.040;113.502;2024-02-15T03:07:33;-15.30;48.59
75838;SHT30;64480;52.040;113.502;2024-02-15T03:10:36;-14.99;47.29
75838;SHT30;64480;52.040;113.502;2024-02-15T03:13:42;-14.82;47.25
75838;SHT30;64480;52.040;113.502;2024-02-15T03:16:46;-14.85;45.82
75838;SHT30;64480;52.040;113.502;2024-02-15T03:19:49;-14.79;46.56
75838;SHT30;64480;52.040;113.502;2024-02-15T03:22:55;-14.50;46.65
75838;SHT30;64480;52.040;113.502;2024-02-15T03:26:01;-14.68;45.10
75838;SHT30;64480;52.040;113.502;2024-02-15T03:29:10;-14.75;45.41
75838;SHT30;64480;52.040;113.502;2024-02-15T03:32:13;-14.87;45.53
75838;SHT30;64480;52.040;113.502;2024-02-15T03:35:21;-14.93;45.45
75838;SHT30;64480;52.040;113.502;2024-02-15T03:38:25;-14.92;45.95
75838;SHT30;64480;52.040;113.502;2024-02-15T03:41:29;-14.71;46.36
75838;SHT30;64480;52.040;113.502;2024-02-15T03:44:35;-14.61;46.44
75838;SHT30;64480;52.040;113.502;2024-02-15T03:47:39;-14.53;46.35
75838;SHT30;64480;52.040;113.502;2024-02-15T03:50:43;-14.22;46.42
75838;SHT30;64480;52.040;113.502;2024-02-15T03:53:47;-13.94;46.53
75838;SHT30;64480;52.040;113.502;2024-02-15T03:56:56;-13.67;45.78
75838;SHT30;64480;52.040;113.502;2024-02-15T04:00:00;-13.29;45.75
75838;SHT30;64480;52.040;113.502;2024-02-15T04:03:10;-13.26;44.41
75838;SHT30;64480;52.040;113.502;2024-02-15T04:06:14;-12.94;44.33
75838;SHT30;64480;52.040;113.502;2024-02-15T04:09:18;-13.04;44.14
75838;SHT30;64480;52.040;113.502;2024-02-15T04:12:26;-12.94;44.30
75838;SHT30;64480;52.040;113.502;2024-02-15T04:15:30;-12.90;44.58
75838;SHT30;64480;52.040;113.502;2024-02-15T04:18:34;-12.62;44.65
75838;SHT30;64480;52.040;113.502;2024-02-15T04:21:38;-12.63;43.62
75838;SHT30;64480;52.040;113.502;2024-02-15T04:24:43;-12.42;44.36
75838;SHT30;64480;52.040;113.502;2024-02-15T04:27:49;-12.27;44.19
75838;SHT30;64480;52.040;113.502;2024-02-15T04:30:53;-12.11;45.31
75838;SHT30;64480;52.040;113.502;2024-02-15T04:33:58;-12.10;44.09
75838;SHT30;64480;52.040;113.502;2024-02-15T04:37:06;-11.97;43.55
75838;SHT30;64480;52.040;113.502;2024-02-15T04:40:17;-11.94;44.12
75838;SHT30;64480;52.040;113.502;2024-02-15T04:43:21;-11.93;43.86
75838;SHT30;64480;52.040;113.502;2024-02-15T04:46:31;-12.04;43.99
75838;SHT30;64480;52.040;113.502;2024-02-15T04:49:36;-11.82;45.50
75838;SHT30;64480;52.040;113.502;2024-02-15T04:52:42;-11.65;44.41
75838;SHT30;64480;52.040;113.502;2024-02-15T04:55:48;-11.72;44.22
75838;SHT30;64480;52.040;113.502;2024-02-15T04:58:52;-11.94;44.15
75838;SHT30;64480;52.040;113.502;2024-02-15T05:01:57;-12.07;45.09
75838;SHT30;64480;52.040;113.502;2024-02-15T05:05:01;-12.07;45.23
75838;SHT30;64480;52.040;113.502;2024-02-15T05:08:06;-12.14;44.68
75838;SHT30;64480;52.040;113.502;2024-02-15T05:11:15;-11.97;45.87
75838;SHT30;64480;52.040;113.502;2024-02-15T05:14:20;-11.86;45.62
75838;SHT30;64480;52.040;113.502;2024-02-15T05:17:27;-11.48;44.89
75838;SHT30;64480;52.040;113.502;2024-02-15T05:20:34;-11.08;44.67
75838;SHT30;64480;52.040;113.502;2024-02-15T05:23:39;-10.68;44.12
75838;SHT30;64480;52.040;113.502;2024-02-15T05:26:46;-10.49;44.76
75838;SHT30;64480;52.040;113.502;2024-02-15T05:29:52;-10.34;43.64
75838;SHT30;64480;52.040;113.502;2024-02-15T05:32:55;-10.24;43.41
75838;SHT30;64480;52.040;113.502;2024-02-15T05:35:59;-10.09;44.05
75838;SHT30;64480;52.040;113.502;2024-02-15T05:39:04;-9.85;44.44
75838;SHT30;64480;52.040;113.502;2024-02-15T05:42:13;-9.65;43.19
75838;SHT30;64480;52.040;113.502;2024-02-15T05:48:31;-9.50;41.88
75838;SHT30;64480;52.040;113.502;2024-02-15T05:51:35;-9.63;40.58
75838;SHT30;64480;52.040;113.502;2024-02-15T05:54:39;-9.68;40.52
75838;SHT30;64480;52.040;113.502;2024-02-15T05:57:45;-9.58;40.84
75838;SHT30;64480;52.040;113.502;2024-02-15T06:00:48;-9.62;40.78
75838;SHT30;64480;52.040;113.502;2024-02-15T06:03:55;-9.51;40.38
75838;SHT30;64480;52.040;113.502;2024-02-15T06:06:59;-9.27;40.88
75838;SHT30;64480;52.040;113.502;2024-02-15T06:10:05;-9.07;40.56
75838;SHT30;64480;52.040;113.502;2024-02-15T06:13:16;-9.02;40.20
75838;SHT30;64480;52.040;113.502;2024-02-15T06:16:20;-8.85;39.78
75838;SHT30;64480;52.040;113.502;2024-02-15T06:19:25;-8.59;40.17
75838;SHT30;64480;52.040;113.502;2024-02-15T06:22:30;-8.71;38.50
75838;SHT30;64480;52.040;113.502;2024-02-15T06:25:34;-8.72;39.39
75838;SHT30;64480;52.040;113.502;2024-02-15T06:28:38;-8.59;39.23
75838;SHT30;64480;52.040;113.502;2024-02-15T06:32:00;-8.51;39.02
75838;SHT30;64480;52.040;113.502;2024-02-15T06:35:22;-8.33;39.54
75838;SHT30;64480;52.040;113.502;2024-02-15T06:38:44;-8.26;39.10
75838;SHT30;64480;52.040;113.502;2024-02-15T06:42:08;-8.16;39.47
75838;SHT30;64480;52.040;113.502;2024-02-15T06:45:16;-8.24;39.30
75838;SHT30;64480;52.040;113.502;2024-02-15T06:48:21;-8.48;38.79
75838;SHT30;64480;52.040;113.502;2024-02-15T06:51:25;-8.59;39.59
75838;SHT30;64480;52.040;113.502;2024-02-15T06:54:29;-8.62;39.48
75838;SHT30;64480;52.040;113.502;2024-02-15T06:57:35;-8.57;40.34
75838;SHT30;64480;52.040;113.502;2024-02-15T07:00:40;-8.44;40.42
75838;SHT30;64480;52.040;113.502;2024-02-15T07:03:44;-8.41;39.54
75838;SHT30;64480;52.040;113.502;2024-02-15T07:06:49;-8.38;40.20
75838;SHT30;64480;52.040;113.502;2024-02-15T07:09:54;-8.36;40.08
75838;SHT30;64480;52.040;113.502;2024-02-15T07:12:59;-8.40;40.57
75838;SHT30;64480;52.040;113.502;2024-02-15T07:16:07;-8.34;40.37
75838;SHT30;64480;52.040;113.502;2024-02-15T07:19:15;-8.34;39.35
75838;SHT30;64480;52.040;113.502;2024-02-15T07:22:19;-8.38;39.91
75838;SHT30;64480;52.040;113.502;2024-02-15T07:25:23;-8.31;39.73
75838;SHT30;64480;52.040;113.502;2024-02-15T07:28:26;-8.29;40.35
75838;SHT30;64480;52.040;113.502;2024-02-15T07:31:30;-8.23;39.64
75838;SHT30;64480;52.040;113.502;2024-02-15T07:34:34;-8.13;40.06
75838;SHT30;64480;52.040;113.502;2024-02-15T07:37:39;-8.16;39.50
75838;SHT30;64480;52.040;113.502;2024-02-15T07:40:54;-8.16;40.34
75838;SHT30;64480;52.040;113.502;2024-02-15T07:43:58;-8.06;39.85
75838;SHT30;64480;52.040;113.502;2024-02-15T07:47:03;-7.98;39.53
75838;SHT30;64480;52.040;113.502;2024-02-15T07:50:08;-7.94;40.28
75838;SHT30;64480;52.040;113.502;2024-02-15T07:53:17;-8.01;40.21
75838;SHT30;64480;52.040;113.502;2024-02-15T07:56:21;-7.98;40.55
75838;SHT30;64480;52.040;113.502;2024-02-15T07:59:24;-8.16;41.24
75838;SHT30;64480;52.040;113.502;2024-02-15T08:02:28;-8.54;42.27
75838;SHT30;64480;52.040;113.502;2024-02-15T08:05:32;-8.68;43.39
75838;SHT30;64480;52.040;113.502;2024-02-15T08:08:36;-8.69;41.55
75838;SHT30;64480;52.040;113.502;2024-02-15T08:11:41;-8.58;41.79
75838;SHT30;64480;52.040;113.502;2024-02-15T08:14:44;-8.52;43.37
75838;SHT30;64480;52.040;113.502;2024-02-15T08:17:48;-8.57;43.61
75838;SHT30;64480;52.040;113.502;2024-02-15T08:20:52;-8.65;41.52
75838;SHT30;64480;52.040;113.502;2024-02-15T08:23:56;-8.64;41.87
75838;SHT30;64480;52.040;113.502;2024-02-15T08:27:00;-8.67;41.72
75838;SHT30;64480;52.040;113.502;2024-02-15T08:30:13;-8.67;41.64
75838;SHT30;64480;52.040;113.502;2024-02-15T08:33:17;-8.69;40.91
75838;SHT30;64480;52.040;113.502;2024-02-15T08:36:26;-8.85;41.26
75838;SHT30;64480;52.040;113.502;2024-02-15T08:39:30;-8.92;41.56
75838;SHT30;64480;52.040;113.502;2024-02-15T08:42:34;-9.03;41.51
75838;SHT30;64480;52.040;113.502;2024-02-15T08:45:38;-9.03;42.43
75838;SHT30;64480;52.040;113.502;2024-02-15T08:48:48;-9.10;42.16
75838;SHT30;64480;52.040;113.502;2024-02-15T08:51:55;-9.12;42.42
75838;SHT30;64480;52.040;113.502;2024-02-15T08:55:01;-9.20;42.45
75838;SHT30;64480;52.040;113.502;2024-02-15T08:58:04;-9.22;42.72
75838;SHT30;64480;52.040;113.502;2024-02-15T09:01:09;-9.23;43.22
75838;SHT30;64480;52.040;113.502;2024-02-15T09:04:15;-9.20;43.46
75838;SHT30;64480;52.040;113.502;2024-02-15T09:07:19;-9.22;43.61
75838;SHT30;64480;52.040;113.502;2024-02-15T09:10:27;-9.23;43.82
75838;SHT30;64480;52.040;113.502;2024-02-15T09:13:30;-9.24;44.05
75838;SHT30;64480;52.040;113.502;2024-02-15T09:16:37;-9.30;43.50
75838;SHT30;64480;52.040;113.502;2024-02-15T09:19:40;-9.35;44.19
75838;SHT30;64480;52.040;113.502;2024-02-15T09:22:48;-9.34;44.30
75838;SHT30;64480;52.040;113.502;2024-02-15T09:25:51;-9.35;44.49
75838;SHT30;64480;52.040;113.502;2024-02-15T09:28:55;-9.40;44.28
75838;SHT30;64480;52.040;113.502;2024-02-15T09:32:00;-9.38;44.19
75838;SHT30;64480;52.040;113.502;2024-02-15T09:35:05;-9.37;44.46
75838;SHT30;64480;52.040;113.502;2024-02-15T09:38:14;-9.38;44.96
75838;SHT30;64480;52.040;113.502;2024-02-15T09:41:23;-9.45;44.16
75838;SHT30;64480;52.040;113.502;2024-02-15T09:44:30;-9.50;44.92
75838;SHT30;64480;52.040;113.502;2024-02-15T09:47:37;-9.52;44.74
75838;SHT30;64480;52.040;113.502;2024-02-15T09:50:45;-9.54;45.10
75838;SHT30;64480;52.040;113.502;2024-02-15T09:53:51;-9.58;44.72
75838;SHT30;64480;52.040;113.502;2024-02-15T09:57:01;-9.68;45.41
75838;SHT30;64480;52.040;113.502;2024-02-15T10:00:05;-9.78;45.10
75838;SHT30;64480;52.040;113.502;2024-02-15T10:03:19;-9.90;45.44
75838;SHT30;64480;52.040;113.502;2024-02-15T10:06:24;-9.90;46.17
75838;SHT30;64480;52.040;113.502;2024-02-15T10:09:30;-9.86;46.75
75838;SHT30;64480;52.040;113.502;2024-02-15T10:12:37;-9.95;47.08
75838;SHT30;64480;52.040;113.502;2024-02-15T10:15:47;-9.96;47.57
75838;SHT30;64480;52.040;113.502;2024-02-15T10:18:51;-10.02;47.52
75838;SHT30;64480;52.040;113.502;2024-02-15T10:21:55;-10.03;47.83
75838;SHT30;64480;52.040;113.502;2024-02-15T10:25:14;-10.10;47.77
75838;SHT30;64480;52.040;113.502;2024-02-15T10:28:21;-10.16;47.91
75838;SHT30;64480;52.040;113.502;2024-02-15T10:31:28;-10.18;47.65
75838;SHT30;64480;52.040;113.502;2024-02-15T10:34:36;-10.23;47.98
75838;SHT30;64480;52.040;113.502;2024-02-15T10:37:48;-10.24;48.32
75838;SHT30;64480;52.040;113.502;2024-02-15T10:41:06;-10.25;48.42
75838;SHT30;64480;52.040;113.502;2024-02-15T10:44:11;-10.28;48.12
75838;SHT30;64480;52.040;113.502;2024-02-15T10:47:18;-10.28;48.44
75838;SHT30;64480;52.040;113.502;2024-02-15T10:50:24;-10.33;48.14
75838;SHT30;64480;52.040;113.502;2024-02-15T10:53:31;-10.31;48.10
75838;SHT30;64480;52.040;113.502;2024-02-15T10:56:43;-10.33;48.01
75838;SHT30;64480;52.040;113.502;2024-02-15T10:59:57;-10.44;47.92
75838;SHT30;64480;52.040;113.502;2024-02-15T11:03:02;-10.42;48.15
75838;SHT30;64480;52.040;113.502;2024-02-15T11:06:09;-10.46;48.20
75838;SHT30;64480;52.040;113.502;2024-02-15T11:09:19;-10.46;48.61
75838;SHT30;64480;52.040;113.502;2024-02-15T11:12:25;-10.46;48.44
75838;SHT30;64480;52.040;113.502;2024-02-15T11:18:46;-10.51;48.39
75838;SHT30;64480;52.040;113.502;2024-02-15T11:21:55;-10.56;48.58
75838;SHT30;64480;52.040;113.502;2024-02-15T11:25:06;-10.52;48.60
75838;SHT30;64480;52.040;113.502;2024-02-15T11:31:55;-10.52;48.75
75838;SHT30;64480;52.040;113.502;2024-02-15T11:35:20;-10.61;48.32
75838;SHT30;64480;52.040;113.502;2024-02-15T11:38:29;-10.65;48.72
75838;SHT30;64480;52.040;113.502;2024-02-15T11:41:36;-10.65;48.65
75838;SHT30;64480;52.040;113.502;2024-02-15T11:44:39;-10.69;49.06
75838;SHT30;64480;52.040;113.502;2024-02-15T11:47:47;-10.68;48.93
75838;SHT30;64480;52.040;113.502;2024-02-15T11:50:54;-10.69;49.00
75838;SHT30;64480;52.040;113.502;2024-02-15T11:54:07;-10.68;49.05
75838;SHT30;64480;52.040;113.502;2024-02-15T11:57:15;-10.69;48.95
75838;SHT30;64480;52.040;113.502;2024-02-15T12:00:29;-10.76;49.00
75838;SHT30;64480;52.040;113.502;2024-02-15T12:03:55;-10.83;49.43
75838;SHT30;64480;52.040;113.502;2024-02-15T12:07:17;-10.95;49.22
75838;SHT30;64480;52.040;113.502;2024-02-15T12:10:39;-11.08;49.66
75838;SHT30;64480;52.040;113.502;2024-02-15T12:14:01;-11.23;50.05
75838;SHT30;64480;52.040;113.502;2024-02-15T12:17:24;-11.42;50.48
75838;SHT30;64480;52.040;113.502;2024-02-15T12:20:46;-11.58;50.94
75838;SHT30;64480;52.040;113.502;2024-02-15T12:23:51;-11.67;51.17
75838;SHT30;64480;52.040;113.502;2024-02-15T12:27:02;-11.76;51.64
75838;SHT30;64480;52.040;113.502;2024-02-15T12:30:16;-11.86;51.95
75838;SHT30;64480;52.040;113.502;2024-02-15T12:33:28;-11.89;52.35
75838;SHT30;64480;52.040;113.502;2024-02-15T12:36:34;-11.91;52.63
75838;SHT30;64480;52.040;113.502;2024-02-15T12:39:40;-11.95;52.60
75838;SHT30;64480;52.040;113.502;2024-02-15T12:42:45;-11.98;52.79
75838;SHT30;64480;52.040;113.502;2024-02-15T12:45:50;-11.98;52.77
75838;SHT30;64480;52.040;113.502;2024-02-15T12:49:17;-12.01;52.83
75838;SHT30;64480;52.040;113.502;2024-02-15T12:52:38;-12.02;52.77
75838;SHT30;64480;52.040;113.502;2024-02-15T12:55:42;-12.07;52.97
75838;SHT30;64480;52.040;113.502;2024-02-15T12:58:47;-12.13;53.16
75838;SHT30;64480;52.040;113.502;2024-02-15T13:01:51;-12.16;53.71
75838;SHT30;64480;52.040;113.502;2024-02-15T13:04:58;-12.24;53.32
75838;SHT30;64480;52.040;113.502;2024-02-15T13:08:03;-12.31;53.52
75838;SHT30;64480;52.040;113.502;2024-02-15T13:11:09;-12.39;53.86
75838;SHT30;64480;52.040;113.502;2024-02-15T13:14:19;-12.48;54.21
75838;SHT30;64480;52.040;113.502;2024-02-15T13:17:23;-12.57;54.53
75838;SHT30;64480;52.040;113.502;2024-02-15T13:20:30;-12.65;54.82
75838;SHT30;64480;52.040;113.502;2024-02-15T13:23:37;-12.67;55.11
75838;SHT30;64480;52.040;113.502;2024-02-15T13:26:40;-12.72;55.37
75838;SHT30;64480;52.040;113.502;2024-02-15T13:29:43;-12.76;55.63
75838;SHT30;64480;52.040;113.502;2024-02-15T13:32:49;-12.80;55.68
75838;SHT30;64480;52.040;113.502;2024-02-15T13:35:55;-12.84;56.00
75838;SHT30;64480;52.040;113.502;2024-02-15T13:38:59;-12.85;56.19
75838;SHT30;64480;52.040;113.502;2024-02-15T13:42:04;-12.85;56.24
75838;SHT30;64480;52.040;113.502;2024-02-15T13:45:08;-12.85;56.30
75838;SHT30;64480;52.040;113.502;2024-02-15T13:48:17;-12.90;56.60
75838;SHT30;64480;52.040;113.502;2024-02-15T13:51:22;-12.93;56.64
75838;SHT30;64480;52.040;113.502;2024-02-15T13:54:25;-12.98;56.73
75838;SHT30;64480;52.040;113.502;2024-02-15T13:57:29;-13.07;56.86
75838;SHT30;64480;52.040;113.502;2024-02-15T14:00:35;-13.16;57.27
75838;SHT30;64480;52.040;113.502;2024-02-15T14:03:41;-13.21;57.53
75838;SHT30;64480;52.040;113.502;2024-02-15T14:06:45;-13.28;57.75
75838;SHT30;64480;52.040;113.502;2024-02-15T14:09:49;-13.33;58.07
75838;SHT30;64480;52.040;113.502;2024-02-15T14:13:04;-13.38;58.26
75838;SHT30;64480;52.040;113.502;2024-02-15T14:16:12;-13.46;58.49
75838;SHT30;64480;52.040;113.502;2024-02-15T14:19:19;-13.50;58.77
75838;SHT30;64480;52.040;113.502;2024-02-15T14:22:26;-13.53;59.03
75838;SHT30;64480;52.040;113.502;2024-02-15T14:25:33;-13.57;59.23
75838;SHT30;64480;52.040;113.502;2024-02-15T14:28:38;-13.59;59.38
75838;SHT30;64480;52.040;113.502;2024-02-15T14:31:45;-13.59;59.58
75838;SHT30;64480;52.040;113.502;2024-02-15T14:35:08;-13.61;59.53
75838;SHT30;64480;52.040;113.502;2024-02-15T14:38:17;-13.63;59.66
75838;SHT30;64480;52.040;113.502;2024-02-15T14:41:22;-13.68;59.67
75838;SHT30;64480;52.040;113.502;2024-02-15T14:44:35;-13.68;59.72
75838;SHT30;64480;52.040;113.502;2024-02-15T14:47:40;-13.74;59.78
75838;SHT30;64480;52.040;113.502;2024-02-15T14:50:46;-13.77;59.79
75838;SHT30;64480;52.040;113.502;2024-02-15T14:53:50;-13.81;59.83
75838;SHT30;64480;52.040;113.502;2024-02-15T14:56:53;-13.87;59.80
75838;SHT30;64480;52.040;113.502;2024-02-15T14:59:57;-13.95;60.00
75838;SHT30;64480;52.040;113.502;2024-02-15T15:03:02;-13.92;60.20
75838;SHT30;64480;52.040;113.502;2024-02-15T15:06:07;-13.96;60.05
75838;SHT30;64480;52.040;113.502;2024-02-15T15:09:30;-14.02;60.22
75838;SHT30;64480;52.040;113.502;2024-02-15T15:12:52;-14.09;60.35
75838;SHT30;64480;52.040;113.502;2024-02-15T15:15:56;-14.15;60.56
75838;SHT30;64480;52.040;113.502;2024-02-15T15:19:00;-14.21;60.71
75838;SHT30;64480;52.040;113.502;2024-02-15T15:22:05;-14.22;60.91
75838;SHT30;64480;52.040;113.502;2024-02-15T15:25:10;-14.28;61.03
75838;SHT30;64480;52.040;113.502;2024-02-15T15:28:14;-14.32;61.01
75838;SHT30;64480;52.040;113.502;2024-02-15T15:31:21;-14.34;61.19
75838;SHT30;64480;52.040;113.502;2024-02-15T15:34:25;-14.39;61.20
75838;SHT30;64480;52.040;113.502;2024-02-15T15:37:29;-14.46;61.45
75838;SHT30;64480;52.040;113.502;2024-02-15T15:40:33;-14.51;61.65
75838;SHT30;64480;52.040;113.502;2024-02-15T15:43:39;-14.54;61.74
75838;SHT30;64480;52.040;113.502;2024-02-15T15:46:43;-14.60;61.88
75838;SHT30;64480;52.040;113.502;2024-02-15T15:49:47;-14.65;62.02
75838;SHT30;64480;52.040;113.502;2024-02-15T15:52:50;-14.65;62.15
75838;SHT30;64480;52.040;113.502;2024-02-15T15:55:56;-14.71;62.22
75838;SHT30;64480;52.040;113.502;2024-02-15T15:59:00;-14.75;62.25
75838;SHT30;64480;52.040;113.502;2024-02-15T16:02:04;-14.74;62.48
75838;SHT30;64480;52.040;113.502;2024-02-15T16:05:20;-14.79;62.50
75838;SHT30;64480;52.040;113.502;2024-02-15T16:08:24;-14.87;62.51
75838;SHT30;64480;52.040;113.502;2024-02-15T16:11:30;-14.91;62.75
75838;SHT30;64480;52.040;113.502;2024-02-15T16:14:33;-14.95;62.94
75838;SHT30;64480;52.040;113.502;2024-02-15T16:17:43;-15.02;63.02
75838;SHT30;64480;52.040;113.502;2024-02-15T16:20:46;-15.00;63.26
75838;SHT30;64480;52.040;113.502;2024-02-15T16:23:53;-15.06;63.30
75838;SHT30;64480;52.040;113.502;2024-02-15T16:26:56;-15.07;63.35
75838;SHT30;64480;52.040;113.502;2024-02-15T16:30:04;-15.07;63.45
75838;SHT30;64480;52.040;113.502;2024-02-15T16:33:11;-15.09;63.48
75838;SHT30;64480;52.040;113.502;2024-02-15T16:36:24;-15.10;63.45
75838;SHT30;64480;52.040;113.502;2024-02-15T16:39:28;-15.13;63.48
75838;SHT30;64480;52.040;113.502;2024-02-15T16:42:32;-15.16;63.52
75838;SHT30;64480;52.040;113.502;2024-02-15T16:45:36;-15.15;63.63
75838;SHT30;64480;52.040;113.502;2024-02-15T16:48:43;-15.15;63.68
75838;SHT30;64480;52.040;113.502;2024-02-15T16:51:49;-15.16;63.53
75838;SHT30;64480;52.040;113.502;2024-02-15T16:54:54;-15.12;63.61
75838;SHT30;64480;52.040;113.502;2024-02-15T16:58:22;-15.12;63.82
75838;SHT30;64480;52.040;113.502;2024-02-15T17:01:55;-15.00;63.71
75838;SHT30;64480;52.040;113.502;2024-02-15T17:04:59;-14.96;63.47
75838;SHT30;64480;52.040;113.502;2024-02-15T17:08:29;-14.88;63.30
75838;SHT30;64480;52.040;113.502;2024-02-15T17:11:48;-14.89;63.07
75838;SHT30;64480;52.040;113.502;2024-02-15T17:14:56;-14.79;63.18
75838;SHT30;64480;52.040;113.502;2024-02-15T17:18:00;-14.72;63.03
75838;SHT30;64480;52.040;113.502;2024-02-15T17:21:05;-14.68;62.44
75838;SHT30;64480;52.040;113.502;2024-02-15T17:24:13;-14.71;62.16
75838;SHT30;64480;52.040;113.502;2024-02-15T17:27:20;-14.74;62.26
75838;SHT30;64480;52.040;113.502;2024-02-15T17:30:23;-14.81;62.14
75838;SHT30;64480;52.040;113.502;2024-02-15T17:33:27;-14.82;62.36
75838;SHT30;64480;52.040;113.502;2024-02-15T17:36:34;-14.84;62.47
75838;SHT30;64480;52.040;113.502;2024-02-15T17:39:38;-14.87;62.51
75838;SHT30;64480;52.040;113.502;2024-02-15T17:42:41;-14.89;62.47
75838;SHT30;64480;52.040;113.502;2024-02-15T17:45:45;-14.93;62.49
75838;SHT30;64480;52.040;113.502;2024-02-15T17:48:50;-14.98;62.51
75838;SHT30;64480;52.040;113.502;2024-02-15T17:51:54;-15.00;62.78
75838;SHT30;64480;52.040;113.502;2024-02-15T17:54:57;-15.03;62.70
75838;SHT30;64480;52.040;113.502;2024-02-15T17:58:01;-15.05;62.73
75838;SHT30;64480;52.040;113.502;2024-02-15T18:01:05;-15.09;62.95
75838;SHT30;64480;52.040;113.502;2024-02-15T18:04:11;-15.10;62.91
75838;SHT30;64480;52.040;113.502;2024-02-15T18:07:15;-15.07;63.16
75838;SHT30;64480;52.040;113.502;2024-02-15T18:10:22;-15.05;62.87
75838;SHT30;64480;52.040;113.502;2024-02-15T18:13:28;-15.00;62.75
75838;SHT30;64480;52.040;113.502;2024-02-15T18:16:35;-14.89;62.67
75838;SHT30;64480;52.040;113.502;2024-02-15T18:19:39;-14.88;62.27
75838;SHT30;64480;52.040;113.502;2024-02-15T18:22:43;-14.88;61.96
75838;SHT30;64480;52.040;113.502;2024-02-15T18:25:46;-14.91;62.05
75838;SHT30;64480;52.040;113.502;2024-02-15T18:28:50;-14.92;62.09
75838;SHT30;64480;52.040;113.502;2024-02-15T18:31:56;-14.89;62.01
75838;SHT30;64480;52.040;113.502;2024-02-15T18:35:00;-14.93;62.00
75838;SHT30;64480;52.040;113.502;2024-02-15T18:38:04;-14.91;62.02
75838;SHT30;64480;52.040;113.502;2024-02-15T18:41:09;-14.95;61.85
75838;SHT30;64480;52.040;113.502;2024-02-15T18:44:13;-14.99;61.95
75838;SHT30;64480;52.040;113.502;2024-02-15T18:47:16;-15.02;61.92
75838;SHT30;64480;52.040;113.502;2024-02-15T18:50:23;-15.12;61.93
75838;SHT30;64480;52.040;113.502;2024-02-15T18:53:27;-15.19;62.25
75838;SHT30;64480;52.040;113.502;2024-02-15T18:56:31;-15.30;62.48
75838;SHT30;64480;52.040;113.502;2024-02-15T18:59:35;-15.37;62.77